Time;durP1;ratioP1;P1;durP2;ratioP2;P2;SDS_P1;SDS_P2;PMS_P1;PMS_P2;Temp;Humidity;BMP_temperature;BMP_pressure;BME280_temperature;BME280_humidity;BME280_pressure;Samples;Min_cycle;Max_cycle;Signal;HPM_P1;HPM_P2
2023/05/18 00:00:14;;;;;;;65.95;58.95;;;22.60;64.50;;;;;;4748846;55;21564;-39
2023/05/18 00:05:19;;;;;;;62.60;56.00;;;22.60;64.50;;;;;;4717555;59;21493;-40
2023/05/18 00:10:20;;;;;;;67.37;60.28;;;22.60;64.50;;;;;;4749157;55;21043;-38
2023/05/18 00:15:21;;;;;;;62.33;55.72;;;22.60;64.40;;;;;;4718683;55;21038;-41
2023/05/18 00:20:25;;;;;;;60.12;53.75;;;22.60;64.40;;;;;;4742999;55;21059;-44
2023/05/18 00:25:26;;;;;;;61.25;54.97;;;22.60;64.60;;;;;;4717393;57;21576;-39
2023/05/18 00:30:27;;;;;;;59.97;53.75;;;22.60;64.50;;;;;;4717619;59;21003;-39
2023/05/18 00:35:28;;;;;;;61.08;54.72;;;22.60;65.00;;;;;;4753885;55;21058;-39
2023/05/18 00:40:29;;;;;;;60.08;53.67;;;22.60;64.40;;;;;;4819775;55;21581;-39
2023/05/18 00:45:29;;;;;;;58.15;52.33;;;22.60;64.40;;;;;;4732734;55;21019;-39
2023/05/18 00:50:31;;;;;;;55.83;50.03;;;22.50;64.40;;;;;;4752856;55;21110;-38
2023/05/18 00:55:31;;;;;;;57.10;51.17;;;22.60;64.40;;;;;;4717978;55;21094;-39
2023/05/18 01:00:36;;;;;;;58.17;52.13;;;22.60;65.00;;;;;;4717182;59;21553;-46
2023/05/18 01:05:37;;;;;;;56.65;50.83;;;22.60;64.30;;;;;;4754670;55;21541;-41
2023/05/18 01:10:44;;;;;;;54.00;48.45;;;22.60;64.40;;;;;;4723389;55;21083;-38
2023/05/18 01:15:51;;;;;;;54.67;49.00;;;22.50;64.40;;;;;;4730362;55;21015;-39
2023/05/18 01:21:12;;;;;;;54.05;48.55;;;22.60;64.40;;;;;;4772716;55;21616;-40
2023/05/18 01:26:36;;;;;;;53.53;48.10;;;22.60;64.40;;;;;;4809997;55;21500;-38
2023/05/18 01:31:37;;;;;;;49.88;44.63;;;22.50;64.30;;;;;;4784168;55;21086;-39
2023/05/18 01:36:37;;;;;;;52.25;46.85;;;22.60;64.30;;;;;;4768259;55;21506;-39
2023/05/18 01:41:58;;;;;;;47.97;43.00;;;22.50;64.30;;;;;;4724728;55;21103;-39
2023/05/18 01:47:10;;;;;;;49.13;44.03;;;22.50;64.90;;;;;;4731021;55;21047;-40
2023/05/18 01:52:18;;;;;;;48.63;43.53;;;22.50;64.30;;;;;;4783421;55;21006;-38
2023/05/18 01:57:22;;;;;;;50.10;45.08;;;22.50;64.30;;;;;;4718066;59;21485;-37
2023/05/18 02:02:23;;;;;;;48.63;43.58;;;22.50;64.30;;;;;;4756770;55;21103;-38
2023/05/18 02:07:24;;;;;;;48.92;43.90;;;22.50;64.20;;;;;;4789368;55;21524;-39
2023/05/18 02:12:25;;;;;;;48.03;43.10;;;22.50;64.20;;;;;;4717714;56;21481;-40
2023/05/18 02:17:26;;;;;;;48.55;43.45;;;22.50;64.20;;;;;;4717522;59;21098;-40
2023/05/18 02:22:27;;;;;;;48.53;43.42;;;22.50;64.20;;;;;;4754776;55;21066;-38
2023/05/18 02:27:27;;;;;;;47.30;42.40;;;22.50;64.10;;;;;;4717410;59;21074;-39
2023/05/18 02:32:31;;;;;;;45.80;41.00;;;22.50;64.20;;;;;;4741079;55;21502;-38
2023/05/18 02:37:33;;;;;;;43.72;39.33;;;22.50;64.20;;;;;;4740478;55;21427;-42
2023/05/18 02:42:34;;;;;;;44.97;40.40;;;22.50;64.10;;;;;;4751893;55;21526;-36
2023/05/18 02:47:35;;;;;;;43.55;39.05;;;22.50;64.10;;;;;;4741344;55;21498;-39
2023/05/18 02:52:36;;;;;;;44.67;40.17;;;22.50;64.10;;;;;;4717559;59;21047;-47
2023/05/18 02:57:36;;;;;;;44.30;39.80;;;22.50;64.20;;;;;;4719776;55;21548;-37
2023/05/18 03:02:37;;;;;;;43.95;39.47;;;22.50;64.20;;;;;;4750615;55;21011;-39
2023/05/18 03:07:38;;;;;;;40.90;36.80;;;22.50;64.10;;;;;;4748142;55;21008;-40
2023/05/18 03:12:39;;;;;;;39.92;35.72;;;22.50;64.10;;;;;;4748400;55;21007;-39
2023/05/18 03:17:40;;;;;;;41.50;37.33;;;22.50;64.10;;;;;;4776207;55;21086;-38
2023/05/18 03:22:40;;;;;;;41.92;37.63;;;22.50;64.10;;;;;;4742149;55;21077;-42
2023/05/18 03:27:43;;;;;;;39.38;35.38;;;22.50;64.20;;;;;;4718055;59;21074;-40
2023/05/18 03:32:47;;;;;;;39.05;35.17;;;22.50;64.10;;;;;;4719952;55;21577;-38
2023/05/18 03:37:48;;;;;;;39.03;35.13;;;22.50;64.10;;;;;;4717541;59;21066;-40
2023/05/18 03:42:49;;;;;;;37.88;34.03;;;22.50;64.00;;;;;;4782369;55;21071;-38
2023/05/18 03:47:50;;;;;;;38.75;34.95;;;22.50;64.00;;;;;;4727332;55;21011;-35
2023/05/18 03:52:52;;;;;;;36.17;32.47;;;22.50;63.60;;;;;;4756588;55;21055;-39
2023/05/18 03:57:55;;;;;;;37.83;34.00;;;22.50;64.00;;;;;;4718167;59;21039;-39
2023/05/18 04:02:56;;;;;;;34.22;30.73;;;22.50;64.00;;;;;;4745460;55;21075;-40
2023/05/18 04:07:57;;;;;;;36.17;32.47;;;22.50;64.10;;;;;;4717574;59;21478;-36
2023/05/18 04:12:58;;;;;;;35.58;31.98;;;22.50;64.10;;;;;;4717848;56;21027;-39
2023/05/18 04:18:00;;;;;;;36.10;32.42;;;22.50;64.10;;;;;;4717384;56;21112;-39
2023/05/18 04:23:02;;;;;;;35.67;32.05;;;22.50;64.20;;;;;;4717639;59;21007;-38
2023/05/18 04:28:03;;;;;;;34.67;31.20;;;22.50;64.20;;;;;;4803145;55;21533;-43
2023/05/18 04:33:05;;;;;;;33.40;30.08;;;22.40;64.20;;;;;;4844179;55;20995;-37
2023/05/18 04:38:06;;;;;;;33.63;30.23;;;22.40;64.30;;;;;;4720204;55;21664;-37
2023/05/18 04:43:07;;;;;;;33.38;30.12;;;22.50;64.20;;;;;;4717534;59;21467;-39
2023/05/18 04:48:08;;;;;;;31.42;28.23;;;22.40;64.20;;;;;;4733457;55;22426;-38
2023/05/18 04:53:10;;;;;;;31.60;28.23;;;22.50;64.20;;;;;;4722555;55;21348;-38
2023/05/18 04:58:12;;;;;;;32.30;29.05;;;22.40;64.20;;;;;;4717772;59;21585;-38
2023/05/18 05:03:13;;;;;;;30.70;27.60;;;22.50;64.20;;;;;;4747695;55;21587;-36
2023/05/18 05:08:15;;;;;;;31.08;27.98;;;22.50;64.20;;;;;;4850551;55;21085;-38
2023/05/18 05:13:15;;;;;;;30.75;27.75;;;22.50;64.20;;;;;;4834120;55;21497;-40
2023/05/18 05:18:16;;;;;;;28.58;25.75;;;22.40;64.10;;;;;;4783239;55;21039;-37
2023/05/18 05:23:17;;;;;;;31.10;28.00;;;22.40;64.20;;;;;;4754003;55;21027;-38
2023/05/18 05:28:18;;;;;;;28.95;26.05;;;22.40;64.10;;;;;;4741172;55;21055;-37
2023/05/18 05:33:19;;;;;;;30.33;27.20;;;22.40;64.20;;;;;;4717870;57;21573;-37
2023/05/18 05:38:19;;;;;;;30.80;27.70;;;22.40;64.10;;;;;;4717733;59;21083;-37
2023/05/18 05:43:20;;;;;;;29.80;26.80;;;22.40;64.10;;;;;;4746267;55;21485;-39
2023/05/18 05:48:21;;;;;;;30.10;27.10;;;22.40;64.10;;;;;;4717430;59;21074;-38
2023/05/18 05:53:22;;;;;;;29.10;26.20;;;22.40;64.10;;;;;;4734497;55;21672;-38
2023/05/18 05:58:23;;;;;;;28.17;25.27;;;22.40;64.60;;;;;;4725900;55;21051;-37
2023/05/18 06:03:24;;;;;;;29.30;26.40;;;22.40;64.10;;;;;;4771440;55;21067;-35
2023/05/18 06:08:26;;;;;;;28.75;25.85;;;22.40;64.10;;;;;;4826701;55;21039;-42
2023/05/18 06:13:27;;;;;;;27.50;24.67;;;22.40;64.10;;;;;;4725298;55;21054;-38
2023/05/18 06:18:28;;;;;;;28.08;25.20;;;22.40;64.10;;;;;;4760393;55;21628;-42
2023/05/18 06:23:29;;;;;;;27.25;24.55;;;22.40;64.10;;;;;;4715739;59;21051;-37
2023/05/18 06:28:30;;;;;;;27.33;24.63;;;22.40;64.10;;;;;;4732958;55;21054;-35
2023/05/18 06:33:31;;;;;;;29.67;26.65;;;22.40;64.10;;;;;;4730869;55;21376;-35
2023/05/18 06:38:31;;;;;;;26.50;23.77;;;22.40;64.10;;;;;;4715808;59;21947;-36
2023/05/18 06:43:32;;;;;;;28.62;25.73;;;22.40;64.10;;;;;;4719192;55;21823;-43
2023/05/18 06:48:33;;;;;;;28.42;25.58;;;22.40;64.10;;;;;;4716275;59;21102;-38
2023/05/18 06:53:34;;;;;;;27.77;24.98;;;22.40;64.10;;;;;;4726662;55;21055;-37
2023/05/18 06:58:35;;;;;;;27.05;24.35;;;22.40;64.10;;;;;;4728904;55;21102;-38
2023/05/18 07:03:36;;;;;;;27.42;24.60;;;22.40;64.00;;;;;;4723694;55;21485;-37
2023/05/18 07:08:37;;;;;;;27.33;24.52;;;22.40;64.10;;;;;;4719565;55;21043;-38
2023/05/18 07:13:38;;;;;;;28.12;25.27;;;22.40;64.10;;;;;;4716812;56;21063;-42
2023/05/18 07:18:40;;;;;;;27.85;25.05;;;22.40;64.10;;;;;;4831645;55;21039;-38
2023/05/18 07:23:41;;;;;;;26.77;24.08;;;22.40;64.10;;;;;;4732814;55;21843;-38
2023/05/18 07:28:42;;;;;;;28.58;25.70;;;22.40;64.10;;;;;;4758870;55;21329;-38
2023/05/18 07:33:44;;;;;;;27.75;24.85;;;22.40;64.00;;;;;;4861363;55;21349;-38
2023/05/18 07:38:45;;;;;;;29.25;26.27;;;22.40;64.00;;;;;;4717743;59;21596;-36
2023/05/18 07:43:46;;;;;;;28.65;25.73;;;22.40;64.10;;;;;;4717819;56;21067;-38
2023/05/18 07:48:49;;;;;;;27.05;24.08;;;22.40;64.10;;;;;;4721207;55;21512;-38
2023/05/18 07:53:50;;;;;;;28.12;25.12;;;22.40;64.10;;;;;;4717508;59;21083;-40
2023/05/18 07:58:51;;;;;;;30.20;27.08;;;22.40;64.10;;;;;;4729768;55;21500;-37
2023/05/18 08:03:53;;;;;;;28.08;25.17;;;22.40;64.00;;;;;;4789267;55;21019;-40
2023/05/18 08:08:55;;;;;;;29.67;26.67;;;22.40;64.00;;;;;;4730887;55;21596;-38
2023/05/18 08:13:56;;;;;;;28.85;25.77;;;22.40;64.10;;;;;;4736564;55;21529;-37
2023/05/18 08:18:57;;;;;;;31.25;27.80;;;22.40;64.00;;;;;;4724767;55;21035;-43
2023/05/18 08:23:58;;;;;;;30.27;26.70;;;22.40;64.20;;;;;;4750063;55;21636;-40
2023/05/18 08:28:59;;;;;;;30.88;27.58;;;22.40;64.00;;;;;;4750462;55;21155;-39
2023/05/18 08:34:00;;;;;;;30.85;27.60;;;22.40;64.10;;;;;;4743615;55;21384;-39
2023/05/18 08:39:01;;;;;;;32.92;29.48;;;22.40;64.10;;;;;;4717050;59;21457;-41
2023/05/18 08:44:08;;;;;;;30.23;27.05;;;22.40;64.10;;;;;;4717767;59;21028;-37
2023/05/18 08:49:09;;;;;;;31.33;27.95;;;22.40;64.00;;;;;;4717334;56;21083;-38
2023/05/18 08:54:14;;;;;;;31.48;28.27;;;22.40;64.00;;;;;;4717705;59;21062;-40
2023/05/18 08:59:35;;;;;;;32.15;28.17;;;22.50;64.10;;;;;;4717276;59;21059;-37
2023/05/18 09:04:37;;;;;;;32.45;28.95;;;22.40;64.00;;;;;;4729228;55;21114;-39
2023/05/18 09:09:40;;;;;;;32.05;28.65;;;22.40;64.10;;;;;;4717687;59;21837;-37
2023/05/18 09:14:42;;;;;;;33.38;29.75;;;22.40;64.10;;;;;;4745037;55;21482;-34
2023/05/18 09:19:43;;;;;;;31.25;27.95;;;22.40;64.00;;;;;;4740244;55;21047;-38
2023/05/18 09:24:44;;;;;;;34.28;30.50;;;22.40;64.00;;;;;;4717681;59;21485;-43
2023/05/18 09:29:53;;;;;;;33.45;29.75;;;22.40;64.10;;;;;;4727208;55;21517;-47
2023/05/18 09:34:55;;;;;;;33.38;29.90;;;22.40;64.10;;;;;;4738087;55;21006;-38
2023/05/18 09:40:01;;;;;;;32.83;29.23;;;22.40;64.00;;;;;;4735642;55;21027;-37
2023/05/18 09:45:13;;;;;;;35.17;31.12;;;22.40;64.10;;;;;;4717484;59;21051;-37
2023/05/18 09:50:17;;;;;;;34.47;30.77;;;22.40;64.10;;;;;;4803449;55;21071;-39
2023/05/18 09:55:19;;;;;;;35.78;31.20;;;22.40;64.10;;;;;;4790315;55;21054;-38
2023/05/18 10:00:20;;;;;;;35.33;31.08;;;22.40;65.50;;;;;;4725902;55;21023;-44
2023/05/18 10:05:23;;;;;;;36.13;32.22;;;22.40;65.30;;;;;;4731954;55;21094;-40
2023/05/18 10:10:26;;;;;;;39.38;34.30;;;22.30;65.60;;;;;;4778403;55;21481;-35
2023/05/18 10:15:27;;;;;;;38.50;33.42;;;22.40;65.80;;;;;;4725186;55;21014;-37
2023/05/18 10:20:28;;;;;;;35.83;32.00;;;22.30;65.90;;;;;;4715772;59;22209;-37
2023/05/18 10:25:31;;;;;;;40.08;33.72;;;22.30;66.30;;;;;;4715979;56;21497;-39
2023/05/18 10:30:34;;;;;;;36.10;31.55;;;22.30;66.10;;;;;;4716897;59;21004;-37
2023/05/18 10:35:37;;;;;;;37.42;33.33;;;22.30;66.20;;;;;;4714293;55;21015;-44
2023/05/18 10:40:42;;;;;;;48.10;33.90;;;22.50;65.60;;;;;;4749079;55;21082;-35
2023/05/18 10:45:46;;;;;;;39.10;34.85;;;22.50;65.90;;;;;;4715664;59;21058;-37
2023/05/18 10:50:52;;;;;;;40.50;35.42;;;22.50;66.00;;;;;;4736151;55;21071;-37
2023/05/18 10:55:54;;;;;;;37.87;33.77;;;22.50;66.10;;;;;;4731162;55;21023;-34
2023/05/18 11:00:57;;;;;;;39.60;33.70;;;22.50;66.10;;;;;;4714357;59;21541;-37
2023/05/18 11:06:09;;;;;;;40.33;35.53;;;22.50;66.10;;;;;;4740019;55;21047;-37
2023/05/18 11:11:10;;;;;;;42.47;36.38;;;22.50;66.20;;;;;;4799422;55;21118;-34
2023/05/18 11:16:11;;;;;;;39.97;33.78;;;22.50;66.30;;;;;;4716663;59;21158;-34
2023/05/18 11:21:19;;;;;;;40.75;34.55;;;22.60;66.40;;;;;;4729609;55;21063;-37
2023/05/18 11:26:28;;;;;;;39.38;34.45;;;22.60;66.40;;;;;;4716665;55;21023;-33
2023/05/18 11:31:43;;;;;;;41.08;36.25;;;22.60;66.50;;;;;;4724333;55;21043;-39
2023/05/18 11:36:45;;;;;;;39.53;35.00;;;22.60;66.50;;;;;;4715523;56;21046;-37
2023/05/18 11:42:04;;;;;;;44.75;35.55;;;22.60;66.60;;;;;;4715081;59;21063;-40
2023/05/18 11:47:09;;;;;;;41.13;35.30;;;22.60;66.70;;;;;;4730004;55;21023;-34
2023/05/18 11:52:21;;;;;;;40.70;36.15;;;22.60;66.70;;;;;;4721880;55;21550;-37
2023/05/18 11:57:43;;;;;;;41.72;37.20;;;22.60;66.70;;;;;;4731697;55;21541;-34
2023/05/18 12:02:46;;;;;;;43.95;37.78;;;22.70;66.50;;;;;;4723228;55;21502;-37
2023/05/18 12:07:52;;;;;;;47.40;39.50;;;22.70;66.60;;;;;;4723139;55;21079;-37
2023/05/18 12:12:55;;;;;;;44.83;38.27;;;22.70;66.60;;;;;;4731294;55;21584;-40
2023/05/18 12:17:57;;;;;;;47.38;39.10;;;22.80;66.50;;;;;;4733121;55;21103;-38
2023/05/18 12:22:58;;;;;;;47.33;39.28;;;22.90;66.40;;;;;;4736148;55;21074;-36
2023/05/18 12:28:00;;;;;;;137.68;122.95;;;22.90;66.30;;;;;;4716605;55;21015;-37
2023/05/18 12:33:01;;;;;;;356.50;318.45;;;23.00;65.90;;;;;;4761133;55;21568;-35
2023/05/18 12:38:02;;;;;;;342.17;305.70;;;23.00;65.70;;;;;;4714775;59;21054;-40
2023/05/18 12:43:03;;;;;;;322.10;288.08;;;22.90;65.30;;;;;;4789859;55;21075;-33
2023/05/18 12:48:09;;;;;;;304.58;272.12;;;22.90;65.00;;;;;;4714998;56;21027;-35
2023/05/18 12:53:10;;;;;;;279.55;249.88;;;23.00;65.00;;;;;;4750881;55;21007;-35
2023/05/18 12:58:16;;;;;;;264.58;236.60;;;23.00;64.60;;;;;;4715672;59;21509;-41
2023/05/18 13:03:23;;;;;;;250.77;223.63;;;23.00;64.30;;;;;;4721548;55;21541;-39
2023/05/18 13:08:24;;;;;;;481.08;431.05;;;23.00;64.20;;;;;;4718194;55;21122;-36
2023/05/18 13:13:25;;;;;;;505.00;453.00;;;23.00;63.90;;;;;;4728620;55;21489;-37
2023/05/18 13:18:27;;;;;;;500.48;448.85;;;23.00;63.90;;;;;;4759883;55;21092;-36
2023/05/18 13:23:29;;;;;;;456.02;407.73;;;23.00;63.80;;;;;;4721033;55;21079;-37
2023/05/18 13:28:30;;;;;;;699.00;627.08;;;23.00;63.60;;;;;;4724651;55;21596;-35
2023/05/18 13:33:30;;;;;;;585.75;525.05;;;23.00;64.00;;;;;;4717647;55;21043;-36
2023/05/18 13:38:34;;;;;;;574.47;514.65;;;22.90;64.50;;;;;;4726107;55;21023;-35
2023/05/18 13:43:35;;;;;;;596.85;534.92;;;22.90;64.60;;;;;;4735691;55;21011;-37
2023/05/18 13:48:36;;;;;;;591.50;530.95;;;22.80;64.70;;;;;;4750089;55;21023;-33
2023/05/18 13:53:37;;;;;;;565.30;507.10;;;22.70;64.80;;;;;;4725111;55;21516;-38
2023/05/18 13:58:37;;;;;;;570.53;511.95;;;22.70;64.80;;;;;;4726463;55;21581;-36
2023/05/18 14:03:39;;;;;;;572.70;514.13;;;22.70;64.90;;;;;;4760763;55;22067;-36
2023/05/18 14:08:40;;;;;;;547.92;491.45;;;22.70;64.80;;;;;;4745408;55;21450;-38
2023/05/18 14:13:41;;;;;;;535.85;480.65;;;22.70;64.80;;;;;;4736069;55;21501;-37
2023/05/18 14:18:42;;;;;;;522.30;467.08;;;22.70;64.90;;;;;;4766856;55;21728;-38
2023/05/18 14:23:43;;;;;;;531.92;477.42;;;22.70;64.90;;;;;;4734614;55;21015;-36
2023/05/18 14:28:44;;;;;;;524.83;470.48;;;22.60;64.90;;;;;;4717501;59;20999;-37
2023/05/18 14:33:44;;;;;;;508.65;455.67;;;22.60;65.10;;;;;;4725204;55;21521;-35
2023/05/18 14:38:45;;;;;;;498.98;446.52;;;22.60;65.00;;;;;;4722168;55;21098;-37
2023/05/18 14:43:46;;;;;;;508.00;455.48;;;22.60;65.00;;;;;;4751707;55;21539;-34
2023/05/18 14:48:47;;;;;;;497.25;445.40;;;22.60;65.10;;;;;;4725860;55;21031;-37
2023/05/18 14:53:48;;;;;;;480.67;429.98;;;22.60;65.10;;;;;;4744650;55;21589;-38
2023/05/18 14:58:49;;;;;;;492.10;440.67;;;22.60;65.10;;;;;;4769839;55;21027;-36
2023/05/18 15:03:50;;;;;;;460.35;411.00;;;22.60;65.00;;;;;;4826643;55;21063;-38
2023/05/18 15:08:51;;;;;;;484.55;433.77;;;22.60;65.10;;;;;;4736493;55;21569;-38
2023/05/18 15:13:52;;;;;;;473.40;423.40;;;22.60;65.10;;;;;;4753116;55;21090;-36
2023/05/18 15:18:52;;;;;;;466.90;417.73;;;22.50;65.10;;;;;;4717205;59;21653;-38
2023/05/18 15:23:53;;;;;;;470.73;421.45;;;22.50;65.20;;;;;;4736969;55;21063;-37
2023/05/18 15:28:55;;;;;;;448.62;400.25;;;22.50;65.00;;;;;;4807597;55;21003;-37
2023/05/18 15:33:56;;;;;;;457.45;408.87;;;22.50;65.10;;;;;;4717487;59;21546;-34
2023/05/18 15:38:56;;;;;;;442.77;395.10;;;22.60;65.10;;;;;;4738388;55;21027;-37
2023/05/18 15:44:01;;;;;;;441.92;394.13;;;22.50;65.00;;;;;;4727244;55;21477;-36
2023/05/18 15:49:02;;;;;;;450.38;401.87;;;22.50;65.00;;;;;;4717480;59;21524;-39
2023/05/18 15:54:03;;;;;;;427.60;381.30;;;22.50;65.10;;;;;;4717692;57;21497;-36
2023/05/18 15:59:07;;;;;;;421.05;375.52;;;22.50;65.20;;;;;;4746613;55;21027;-36
2023/05/18 16:04:08;;;;;;;406.40;361.80;;;22.50;65.10;;;;;;4717550;59;21497;-37
2023/05/18 16:09:09;;;;;;;434.15;387.67;;;22.50;65.00;;;;;;4717635;55;20991;-35
2023/05/18 16:14:10;;;;;;;424.20;378.40;;;22.50;65.00;;;;;;4717542;59;21577;-29
2023/05/18 16:19:10;;;;;;;420.40;374.58;;;22.60;65.00;;;;;;4717061;57;21103;-39
2023/05/18 16:24:11;;;;;;;415.20;370.05;;;22.60;64.90;;;;;;4768068;55;21139;-37
2023/05/18 16:29:12;;;;;;;415.77;370.52;;;22.60;64.90;;;;;;4817107;55;21083;-38
2023/05/18 16:34:13;;;;;;;415.85;370.60;;;22.60;64.80;;;;;;4719350;55;21497;-35
2023/05/18 16:39:14;;;;;;;415.02;369.35;;;22.60;64.80;;;;;;4720475;55;21040;-35
2023/05/18 16:44:14;;;;;;;412.00;367.13;;;22.60;64.80;;;;;;4930942;55;21102;-34
2023/05/18 16:49:15;;;;;;;409.30;364.70;;;22.60;64.60;;;;;;4725111;55;21039;-36
2023/05/18 16:54:16;;;;;;;408.92;364.60;;;22.60;64.50;;;;;;4746298;55;21183;-35
2023/05/18 16:59:17;;;;;;;402.60;358.77;;;22.60;64.40;;;;;;4718884;55;21030;-37
2023/05/18 17:04:18;;;;;;;399.88;356.50;;;22.60;64.30;;;;;;4822455;55;21048;-40
2023/05/18 17:09:19;;;;;;;399.90;356.60;;;22.60;64.50;;;;;;4736426;55;21167;-36
2023/05/18 17:14:20;;;;;;;395.25;351.95;;;22.60;64.80;;;;;;4718234;55;21525;-36
2023/05/18 17:19:21;;;;;;;392.85;350.13;;;22.60;64.60;;;;;;4788346;55;21035;-36
2023/05/18 17:24:21;;;;;;;387.90;345.73;;;22.60;64.50;;;;;;4733712;55;21474;-38
2023/05/18 17:29:22;;;;;;;389.60;347.30;;;22.60;64.50;;;;;;4722510;55;21332;-35
2023/05/18 17:34:25;;;;;;;384.73;342.95;;;22.60;64.50;;;;;;4724837;55;21007;-35
2023/05/18 17:39:26;;;;;;;383.42;341.55;;;22.60;64.50;;;;;;4735229;55;21510;-36
2023/05/18 17:44:27;;;;;;;373.23;333.17;;;22.70;64.40;;;;;;4720441;55;21087;-35
2023/05/18 17:49:28;;;;;;;370.05;330.12;;;22.60;64.40;;;;;;4717946;56;21490;-35
2023/05/18 17:54:29;;;;;;;370.73;330.80;;;22.60;64.60;;;;;;4717238;59;21067;-37
2023/05/18 17:59:29;;;;;;;368.20;328.45;;;22.60;64.50;;;;;;4716742;59;21031;-36
2023/05/18 18:04:30;;;;;;;365.52;326.30;;;22.60;64.60;;;;;;4797602;55;21063;-35
2023/05/18 18:09:31;;;;;;;364.05;324.98;;;22.60;64.70;;;;;;4717554;59;22645;-39
2023/05/18 18:14:32;;;;;;;358.83;320.05;;;22.60;64.40;;;;;;4723889;55;21015;-36
2023/05/18 18:19:33;;;;;;;354.23;315.95;;;22.60;64.50;;;;;;4747598;55;21528;-39
2023/05/18 18:24:34;;;;;;;351.88;314.27;;;22.60;64.40;;;;;;4785708;55;21068;-37
2023/05/18 18:29:35;;;;;;;346.27;309.00;;;22.60;64.50;;;;;;4738916;55;21023;-36
2023/05/18 18:34:36;;;;;;;340.58;304.20;;;22.60;64.50;;;;;;4717844;58;21009;-38
2023/05/18 18:39:36;;;;;;;327.45;291.90;;;22.60;64.60;;;;;;4729551;55;21023;-39
2023/05/18 18:44:37;;;;;;;339.00;302.40;;;22.50;64.70;;;;;;4719473;55;21031;-34
2023/05/18 18:49:38;;;;;;;339.98;303.73;;;22.60;64.50;;;;;;4717732;59;21082;-38
2023/05/18 18:54:39;;;;;;;327.33;291.77;;;22.60;65.30;;;;;;4732946;55;21454;-36
2023/05/18 18:59:40;;;;;;;321.80;286.83;;;22.50;64.50;;;;;;4725422;55;21035;-36
2023/05/18 19:04:40;;;;;;;306.67;273.42;;;22.60;64.60;;;;;;4743242;55;21533;-37
2023/05/18 19:09:41;;;;;;;324.35;289.77;;;22.50;64.70;;;;;;4722017;55;21074;-32
2023/05/18 19:14:42;;;;;;;323.60;288.90;;;22.50;64.70;;;;;;4718322;56;21003;-35
2023/05/18 19:19:43;;;;;;;317.75;283.55;;;22.50;64.70;;;;;;4781429;55;21845;-38
2023/05/18 19:24:44;;;;;;;298.30;265.90;;;22.50;64.70;;;;;;4717963;59;21014;-37
2023/05/18 19:29:45;;;;;;;309.10;276.10;;;22.50;64.80;;;;;;4717765;55;21997;-35
2023/05/18 19:34:46;;;;;;;300.67;268.63;;;22.50;64.70;;;;;;4785550;55;21134;-36
2023/05/18 19:39:47;;;;;;;307.85;275.20;;;22.50;64.70;;;;;;4804105;55;21102;-35
2023/05/18 19:44:48;;;;;;;299.62;267.77;;;22.40;64.90;;;;;;4717774;59;21031;-35
2023/05/18 19:49:48;;;;;;;297.80;266.45;;;22.40;65.00;;;;;;4717594;56;21580;-34
2023/05/18 19:54:49;;;;;;;295.85;264.48;;;22.40;64.90;;;;;;4733349;55;21473;-37
2023/05/18 19:59:50;;;;;;;291.08;260.02;;;22.40;64.90;;;;;;4772835;55;21082;-38
2023/05/18 20:04:52;;;;;;;288.10;257.12;;;22.40;64.70;;;;;;4780669;55;21588;-37
2023/05/18 20:09:53;;;;;;;280.60;250.93;;;22.40;65.50;;;;;;4756085;55;21470;-37
2023/05/18 20:14:54;;;;;;;277.95;248.25;;;22.40;64.70;;;;;;4717526;59;21043;-35
2023/05/18 20:19:55;;;;;;;277.25;247.82;;;22.40;64.70;;;;;;4717345;55;21573;-35
2023/05/18 20:24:59;;;;;;;265.15;236.70;;;22.40;64.70;;;;;;4734821;55;20995;-37
2023/05/18 20:30:00;;;;;;;258.05;230.07;;;22.40;64.70;;;;;;4749729;55;21473;-37
2023/05/18 20:35:01;;;;;;;245.35;218.45;;;22.40;64.70;;;;;;4717180;59;21470;-35
2023/05/18 20:40:07;;;;;;;261.45;233.80;;;22.30;64.60;;;;;;4730596;55;21561;-36
2023/05/18 20:45:09;;;;;;;258.67;231.18;;;22.40;64.60;;;;;;4718327;56;21007;-36
2023/05/18 20:50:14;;;;;;;255.35;228.23;;;22.30;64.50;;;;;;4748159;55;21020;-36
2023/05/18 20:55:16;;;;;;;255.05;227.90;;;22.40;64.40;;;;;;4717629;59;21360;-36
2023/05/18 21:00:18;;;;;;;251.40;225.05;;;22.40;64.40;;;;;;4717093;56;21521;-36
2023/05/18 21:05:19;;;;;;;240.90;214.82;;;22.30;64.30;;;;;;4751121;55;21561;-36
2023/05/18 21:10:20;;;;;;;242.10;216.38;;;22.30;64.40;;;;;;4723318;55;21095;-37
2023/05/18 21:15:21;;;;;;;226.20;201.60;;;22.30;64.30;;;;;;4717828;59;21518;-37
2023/05/18 21:20:22;;;;;;;234.25;209.20;;;22.30;64.20;;;;;;4730788;55;21114;-38
2023/05/18 21:25:23;;;;;;;228.00;203.55;;;22.30;64.30;;;;;;4736981;55;21556;-37
2023/05/18 21:30:24;;;;;;;217.40;193.93;;;22.30;64.70;;;;;;4755640;55;21038;-36
2023/05/18 21:35:26;;;;;;;216.57;192.98;;;22.30;64.20;;;;;;4734521;55;21015;-34
2023/05/18 21:40:27;;;;;;;204.13;181.75;;;22.30;64.20;;;;;;4785859;55;21546;-38
2023/05/18 21:45:29;;;;;;;206.73;184.10;;;22.30;64.20;;;;;;4717270;59;21082;-34
2023/05/18 21:50:33;;;;;;;219.50;195.85;;;22.30;64.10;;;;;;4717916;59;21608;-36
2023/05/18 21:55:34;;;;;;;199.80;177.90;;;22.30;64.30;;;;;;4755333;55;21479;-35
2023/05/18 22:00:37;;;;;;;209.73;186.93;;;22.30;64.30;;;;;;4726511;55;21078;-36
2023/05/18 22:05:43;;;;;;;204.70;182.40;;;22.30;64.10;;;;;;4771144;55;20991;-38
2023/05/18 22:10:44;;;;;;;203.80;182.07;;;22.30;64.20;;;;;;4743651;55;21906;-38
2023/05/18 22:15:45;;;;;;;205.85;183.77;;;22.30;64.20;;;;;;4778875;55;21533;-36
2023/05/18 22:20:46;;;;;;;195.75;174.32;;;22.30;64.10;;;;;;4720964;55;21170;-35
2023/05/18 22:25:47;;;;;;;199.05;177.27;;;22.30;64.40;;;;;;4717927;59;21491;-36
2023/05/18 22:30:49;;;;;;;192.10;171.02;;;22.30;64.10;;;;;;4724824;55;21091;-34
2023/05/18 22:35:49;;;;;;;180.80;157.40;;;22.30;64.10;;;;;;4799985;55;21095;-38
2023/05/18 22:40:53;;;;;;;175.73;154.73;;;22.30;64.30;;;;;;4726766;55;21582;-35
2023/05/18 22:45:54;;;;;;;190.30;169.75;;;22.30;64.20;;;;;;4779843;55;21471;-39
2023/05/18 22:50:55;;;;;;;180.77;160.80;;;22.30;64.10;;;;;;4750311;55;21517;-35
2023/05/18 22:55:56;;;;;;;181.85;161.90;;;22.30;64.10;;;;;;4835119;55;21012;-37
2023/05/18 23:00:57;;;;;;;177.35;157.77;;;22.30;64.10;;;;;;4739205;55;21395;-36
2023/05/18 23:06:01;;;;;;;179.82;160.35;;;22.30;64.10;;;;;;4759629;55;21048;-36
2023/05/18 23:11:03;;;;;;;172.70;153.45;;;22.30;64.00;;;;;;4794196;55;21577;-37
2023/05/18 23:16:08;;;;;;;176.55;157.23;;;22.30;64.10;;;;;;4729165;55;21493;-36
2023/05/18 23:21:09;;;;;;;161.88;143.23;;;22.30;64.20;;;;;;4716435;59;21637;-35
2023/05/18 23:26:12;;;;;;;161.18;143.32;;;22.30;64.10;;;;;;4759788;55;21016;-38
2023/05/18 23:31:12;;;;;;;161.95;144.07;;;22.30;64.10;;;;;;4770042;55;21657;-38
2023/05/18 23:36:15;;;;;;;162.98;145.25;;;22.30;64.10;;;;;;4717477;59;21099;-38
2023/05/18 23:41:18;;;;;;;158.15;140.77;;;22.30;64.10;;;;;;4717401;59;21479;-37
2023/05/18 23:46:20;;;;;;;160.32;142.75;;;22.30;64.10;;;;;;4758680;55;21581;-36
2023/05/18 23:51:21;;;;;;;158.45;141.07;;;22.30;64.10;;;;;;4740004;55;21027;-37
2023/05/18 23:56:23;;;;;;;158.65;141.27;;;22.30;64.10;;;;;;4766974;55;21031;-35
